createdAt,value
2014-08-22T00:00:50.906Z,64.61
2014-08-22T00:01:55.581Z,63.92
2014-08-22T00:03:00.257Z,63.13
2014-08-22T00:04:04.947Z,63.06
2014-08-22T00:05:09.622Z,63.17
2014-08-22T00:06:14.297Z,63.28
2014-08-22T00:07:19.283Z,63.6
2014-08-22T00:08:24.254Z,63.46
2014-08-22T00:09:28.944Z,63.09
2014-08-22T00:10:33.617Z,63.02
2014-08-22T00:11:38.292Z,63.61
2014-08-22T00:12:42.982Z,63.43
2014-08-22T00:13:47.655Z,62.61
2014-08-22T00:14:52.329Z,63.19
2014-08-22T00:15:57.596Z,63.86
2014-08-22T00:17:02.287Z,64.57
2014-08-22T00:18:06.289Z,65.27
2014-08-22T00:19:10.962Z,65.1
2014-08-22T00:20:15.636Z,64.7
2014-08-22T00:21:20.326Z,64.62
2014-08-22T00:22:25.000Z,64.06
2014-08-22T00:23:29.689Z,64.92
2014-08-22T00:24:34.363Z,64.62
2014-08-22T00:25:39.349Z,64.23
2014-08-22T00:26:44.336Z,64.27
2014-08-22T00:27:49.010Z,63.58
2014-08-22T00:28:53.700Z,64.15
2014-08-22T00:29:58.670Z,64.71
2014-08-22T00:31:03.360Z,64.85
2014-08-22T00:32:08.331Z,65.01
2014-08-22T00:33:13.021Z,65.18
2014-08-22T00:34:17.694Z,65.12
2014-08-22T00:35:22.383Z,64.21
2014-08-22T00:36:27.354Z,63.5
2014-08-22T00:37:32.029Z,63.12
2014-08-22T00:38:37.017Z,63.4
2014-08-22T00:39:41.690Z,63.28
2014-08-22T00:40:46.379Z,62.87
2014-08-22T00:41:51.054Z,62.82
2014-08-22T00:42:55.744Z,62.85
2014-08-22T00:44:00.730Z,62.88
2014-08-22T00:45:05.404Z,63.07
2014-08-22T00:46:10.078Z,63.32
2014-08-22T00:47:14.767Z,64.02
2014-08-22T00:48:19.441Z,64.7
2014-08-22T00:49:24.114Z,65.12
2014-08-22T00:50:28.805Z,65.25
2014-08-22T00:51:33.479Z,65.57
2014-08-22T00:52:38.152Z,64.69
2014-08-22T00:53:42.842Z,63.66
2014-08-22T00:54:47.814Z,63.18
2014-08-22T00:55:52.503Z,63.18
2014-08-22T00:56:57.177Z,63.96
2014-08-22T00:58:01.867Z,65.57
2014-08-22T00:59:06.837Z,65.45
2014-08-22T01:00:11.511Z,65.71
2014-08-22T01:01:16.201Z,65.81
2014-08-22T01:02:20.875Z,65.74
2014-08-22T01:03:25.564Z,65.59
2014-08-22T01:04:30.238Z,64.89
2014-08-22T01:05:34.927Z,63.97
2014-08-22T01:06:39.601Z,64.99
2014-08-22T01:07:44.291Z,65.34
2014-08-22T01:08:48.980Z,64.64
2014-08-22T01:09:53.654Z,63.73
2014-08-22T01:10:58.344Z,63.04
2014-08-22T01:12:03.331Z,62.78
2014-08-22T01:13:08.599Z,63.81
2014-08-22T01:14:13.288Z,64.23
2014-08-22T01:15:17.962Z,64.66
2014-08-22T01:16:22.651Z,65.24
2014-08-22T01:17:27.324Z,65.08
2014-08-22T01:18:32.014Z,63.53
2014-08-22T01:19:36.986Z,63.23
2014-08-22T01:20:41.675Z,62.62
2014-08-22T01:21:46.349Z,62.7
2014-08-22T01:22:51.023Z,63.4
2014-08-22T01:23:55.711Z,63.16
2014-08-22T01:25:00.386Z,62.98
2014-08-22T01:26:05.060Z,62.9
2014-08-22T01:27:09.734Z,62.81
2014-08-22T01:28:14.424Z,62.71
2014-08-22T01:29:19.394Z,64
2014-08-22T01:30:24.069Z,64.85
2014-08-22T01:31:28.759Z,65.04
2014-08-22T01:32:33.728Z,64.16
2014-08-22T01:33:38.418Z,64.08
2014-08-22T01:34:43.389Z,64.41
2014-08-22T01:35:48.079Z,64.55
2014-08-22T01:36:52.752Z,64.46
2014-08-22T01:37:57.426Z,64.12
2014-08-22T01:39:02.116Z,64.29
2014-08-22T01:40:07.086Z,63.93
2014-08-22T01:41:11.777Z,63.73
2014-08-22T01:42:16.747Z,64.23
2014-08-22T01:43:21.421Z,64.1
2014-08-22T01:44:26.111Z,64.49
2014-08-22T01:45:30.785Z,64.84
2014-08-22T01:46:36.068Z,63.84
2014-08-22T01:47:41.054Z,64.03
2014-08-22T01:48:45.729Z,63.61
2014-08-22T01:49:50.418Z,63.22
2014-08-22T01:50:55.093Z,63.6
2014-08-22T01:52:00.079Z,63.72
2014-08-22T01:53:04.753Z,64.46
2014-08-22T01:54:09.442Z,65.06
2014-08-22T01:55:14.413Z,64.79
2014-08-22T01:56:19.103Z,65.24
2014-08-22T01:57:23.777Z,64.53
2014-08-22T01:58:28.466Z,64.26
2014-08-22T01:59:33.140Z,63.94
2014-08-22T02:00:37.814Z,63.94
2014-08-22T02:01:42.504Z,64.03
2014-08-22T02:02:47.177Z,65.58
2014-08-22T02:03:51.164Z,66.05
2014-08-22T02:04:55.853Z,65.99
2014-08-22T02:06:00.527Z,64.96
2014-08-22T02:07:05.513Z,64.61
2014-08-22T02:08:10.485Z,64.2
2014-08-22T02:09:15.173Z,64.31
2014-08-22T02:10:19.848Z,64.07
2014-08-22T02:11:24.521Z,64.53
2014-08-22T02:12:29.211Z,64.89
2014-08-22T02:13:33.885Z,65.56
2014-08-22T02:14:38.575Z,65.93
2014-08-22T02:15:43.249Z,65.24
2014-08-22T02:16:47.922Z,64.57
2014-08-22T02:17:52.612Z,64.31
2014-08-22T02:18:57.302Z,64.37
2014-08-22T02:20:01.976Z,64.34
2014-08-22T02:21:06.649Z,64.08
2014-08-22T02:22:11.339Z,64.41
2014-08-22T02:23:16.341Z,64.75
2014-08-22T02:24:21.031Z,64.34
2014-08-22T02:25:25.704Z,64.42
2014-08-22T02:26:30.692Z,64.41
2014-08-22T02:27:35.365Z,64.46
2014-08-22T02:28:40.071Z,64.61
2014-08-22T02:29:44.759Z,64.41
2014-08-22T02:30:49.433Z,65.69
2014-08-22T02:31:54.421Z,66.23
2014-08-22T02:32:59.093Z,66.13
2014-08-22T02:34:03.784Z,66.31
2014-08-22T02:35:08.754Z,66.55
2014-08-22T02:36:13.445Z,66.63
2014-08-22T02:37:18.119Z,67.02
2014-08-22T02:38:22.809Z,67.07
2014-08-22T02:39:27.482Z,66.41
2014-08-22T02:40:32.157Z,66.43
2014-08-22T02:41:36.846Z,66.37
2014-08-22T02:42:41.520Z,66.25
2014-08-22T02:43:46.507Z,66.36
2014-08-22T02:44:51.774Z,66.39
2014-08-22T02:45:56.449Z,66.5
2014-08-22T02:47:01.138Z,66.87
2014-08-22T02:48:06.109Z,65.95
2014-08-22T02:49:10.782Z,66.08
2014-08-22T02:50:15.472Z,67.17
2014-08-22T02:51:20.146Z,66.29
2014-08-22T02:52:24.820Z,65.74
2014-08-22T02:53:29.509Z,65.45
2014-08-22T02:54:34.777Z,65.52
2014-08-22T02:55:39.467Z,65.19
2014-08-22T02:56:44.140Z,64.99
2014-08-22T02:57:49.127Z,65.67
2014-08-22T02:58:53.802Z,65.12
2014-08-22T02:59:58.476Z,64.76
2014-08-22T03:01:03.164Z,64.79
2014-08-22T03:02:08.135Z,64.27
2014-08-22T03:03:13.121Z,64.4
2014-08-22T03:04:17.812Z,64.18
2014-08-22T03:05:22.501Z,64.89
2014-08-22T03:06:27.487Z,64.55
2014-08-22T03:07:32.177Z,64.45
2014-08-22T03:08:36.851Z,65.16
2014-08-22T03:09:41.837Z,65.1
2014-08-22T03:10:46.808Z,65.14
2014-08-22T03:11:51.498Z,65.2
2014-08-22T03:12:56.171Z,65.12
2014-08-22T03:14:00.861Z,65.1
2014-08-22T03:15:05.550Z,65.41
2014-08-22T03:16:10.537Z,65.19
2014-08-22T03:17:15.523Z,64.99
2014-08-22T03:18:20.197Z,65.34
2014-08-22T03:19:24.871Z,65.65
2014-08-22T03:20:29.561Z,65.14
2014-08-22T03:21:34.234Z,65.35
2014-08-22T03:22:38.222Z,64.8
2014-08-22T03:23:43.208Z,64.24
2014-08-22T03:24:48.178Z,65.15
2014-08-22T03:25:53.165Z,65.22
2014-08-22T03:26:58.136Z,64.99
2014-08-22T03:28:02.825Z,65.65
2014-08-22T03:29:07.499Z,65.28
2014-08-22T03:30:12.486Z,65.08
2014-08-22T03:31:17.190Z,65.28
2014-08-22T03:32:21.865Z,65.34
2014-08-22T03:33:26.554Z,65.35
2014-08-22T03:34:31.228Z,64.8
2014-08-22T03:35:35.902Z,64.72
2014-08-22T03:36:40.576Z,65.3
2014-08-22T03:37:45.562Z,65.72
2014-08-22T03:38:50.236Z,65.23
2014-08-22T03:39:54.926Z,65.3
2014-08-22T03:40:59.599Z,65.17
2014-08-22T03:42:04.570Z,65.09
2014-08-22T03:43:09.853Z,65.14
2014-08-22T03:44:14.527Z,65
2014-08-22T03:45:19.201Z,65.26
2014-08-22T03:46:23.516Z,65.45
2014-08-22T03:47:28.190Z,65.48
2014-08-22T03:48:32.880Z,65.21
2014-08-22T03:49:38.148Z,65.13
2014-08-22T03:50:42.837Z,64.63
2014-08-22T03:51:47.823Z,64.75
2014-08-22T03:52:52.810Z,65.21
2014-08-22T03:53:57.796Z,64.47
2014-08-22T03:55:02.487Z,64.48
2014-08-22T03:56:07.458Z,64.58
2014-08-22T03:57:12.445Z,65.12
2014-08-22T03:58:17.118Z,65.41
2014-08-22T03:59:21.808Z,65.25
2014-08-22T04:00:26.779Z,65.06
2014-08-22T04:01:30.780Z,65.13
2014-08-22T04:02:35.454Z,65.84
2014-08-22T04:03:40.738Z,65.65
2014-08-22T04:04:45.412Z,65.26
2014-08-22T04:05:50.086Z,64.94
2014-08-22T04:06:54.775Z,64.64
2014-08-22T04:07:59.746Z,64.1
2014-08-22T04:09:04.733Z,64.95
2014-08-22T04:10:09.406Z,65.79
2014-08-22T04:11:14.096Z,66.02
2014-08-22T04:12:18.770Z,64.86
2014-08-22T04:13:23.459Z,64.47
2014-08-22T04:14:28.134Z,64.47
2014-08-22T04:15:32.808Z,63.86
2014-08-22T04:16:37.481Z,64.09
2014-08-22T04:17:42.467Z,63.94
2014-08-22T04:18:47.141Z,64.62
2014-08-22T04:19:51.815Z,65.6
2014-08-22T04:20:56.505Z,65.19
2014-08-22T04:22:01.179Z,65.2
2014-08-22T04:23:05.853Z,65.49
2014-08-22T04:24:10.543Z,65.83
2014-08-22T04:25:14.528Z,65.64
2014-08-22T04:26:19.219Z,66.09
2014-08-22T04:27:24.189Z,66.28
2014-08-22T04:28:29.176Z,65.58
2014-08-22T04:29:34.162Z,65.7
2014-08-22T04:30:38.836Z,66.68
2014-08-22T04:31:43.510Z,67.19
2014-08-22T04:32:48.200Z,67.15
2014-08-22T04:33:52.874Z,67.19
2014-08-22T04:34:57.564Z,67.54
2014-08-22T04:36:02.238Z,67.55
2014-08-22T04:37:06.927Z,67.04
2014-08-22T04:38:11.898Z,67.28
2014-08-22T04:39:16.884Z,65.96
2014-08-22T04:40:21.558Z,65.27
2014-08-22T04:41:26.529Z,65.92
2014-08-22T04:42:31.218Z,65.9
2014-08-22T04:43:36.189Z,65.97
2014-08-22T04:44:40.863Z,65.79
2014-08-22T04:45:45.553Z,66.8
2014-08-22T04:46:50.539Z,66.92
2014-08-22T04:47:55.213Z,66.75
2014-08-22T04:48:59.902Z,66.51
2014-08-22T04:50:04.576Z,67.08
2014-08-22T04:51:09.250Z,67.23
2014-08-22T04:52:13.941Z,67.07
2014-08-22T04:53:18.910Z,65.86
2014-08-22T04:54:23.882Z,65.96
2014-08-22T04:55:28.572Z,65.58
2014-08-22T04:56:33.245Z,65.44
2014-08-22T04:57:37.919Z,65.09
2014-08-22T04:58:42.906Z,66.8
2014-08-22T04:59:47.876Z,67
2014-08-22T05:00:52.550Z,66.98
2014-08-22T05:01:57.240Z,67.11
2014-08-22T05:03:02.211Z,67.59
2014-08-22T05:04:06.900Z,68.05
2014-08-22T05:05:11.871Z,67.65
2014-08-22T05:06:16.560Z,67.04
2014-08-22T05:07:21.234Z,67.14
2014-08-22T05:08:26.205Z,67.54
2014-08-22T05:09:30.894Z,67.27
2014-08-22T05:10:35.866Z,67.25
2014-08-22T05:11:40.556Z,67.57
2014-08-22T05:12:45.541Z,67.62
2014-08-22T05:13:50.513Z,67.79
2014-08-22T05:14:55.201Z,67.57
2014-08-22T05:15:59.875Z,67.01
2014-08-22T05:17:04.565Z,67.55
2014-08-22T05:18:09.535Z,67.37
2014-08-22T05:19:14.225Z,66.63
2014-08-22T05:20:18.900Z,65.96
2014-08-22T05:21:23.589Z,65.8
2014-08-22T05:22:28.264Z,65.32
2014-08-22T05:23:32.938Z,66.09
2014-08-22T05:24:37.924Z,65.89
2014-08-22T05:25:42.598Z,65.47
2014-08-22T05:26:47.289Z,64.94
2014-08-22T05:27:51.963Z,63.6
2014-08-22T05:28:56.651Z,64.2
2014-08-22T05:30:01.326Z,64.02
2014-08-22T05:31:06.016Z,62.69
2014-08-22T05:32:10.688Z,63.12
2014-08-22T05:33:15.676Z,63.67
2014-08-22T05:34:20.350Z,64.32
2014-08-22T05:35:25.039Z,63.31
2014-08-22T05:36:29.713Z,60.25
2014-08-22T05:37:34.387Z,59.17
2014-08-22T05:38:39.076Z,59.87
2014-08-22T05:39:43.750Z,60.94
2014-08-22T05:40:47.752Z,60.27
2014-08-22T05:41:52.739Z,59.85
2014-08-22T05:42:57.413Z,61.2
2014-08-22T05:44:02.102Z,62.78
2014-08-22T05:45:07.074Z,63.9
2014-08-22T05:46:12.059Z,63.95
2014-08-22T05:47:17.031Z,63.79
2014-08-22T05:48:22.016Z,63.75
2014-08-22T05:49:26.706Z,63.32
2014-08-22T05:50:31.396Z,63.21
2014-08-22T05:51:36.085Z,63.45
2014-08-22T05:52:40.760Z,64.91
2014-08-22T05:53:45.746Z,65.77
2014-08-22T05:54:50.420Z,65.67
2014-08-22T05:55:55.109Z,65.92
2014-08-22T05:57:00.096Z,66.14
2014-08-22T05:58:04.785Z,65.87
2014-08-22T05:59:09.460Z,66.63
2014-08-22T06:00:14.133Z,66.45
2014-08-22T06:01:18.808Z,65.12
2014-08-22T06:02:23.496Z,64.76
2014-08-22T06:03:28.171Z,64.44
2014-08-22T06:04:33.157Z,64.97
2014-08-22T06:05:37.832Z,64.21
2014-08-22T06:06:42.818Z,64.52
2014-08-22T06:07:47.491Z,65.1
2014-08-22T06:08:52.181Z,65.18
2014-08-22T06:09:56.855Z,65.45
2014-08-22T06:11:01.528Z,64.55
2014-08-22T06:12:06.219Z,63.76
2014-08-22T06:13:10.892Z,64.49
2014-08-22T06:14:15.566Z,64.48
2014-08-22T06:15:20.552Z,65.21
2014-08-22T06:16:25.227Z,65.21
2014-08-22T06:17:29.916Z,64.41
2014-08-22T06:18:34.887Z,64.62
2014-08-22T06:19:39.561Z,63.63
2014-08-22T06:20:44.547Z,63.55
2014-08-22T06:21:49.237Z,63.84
2014-08-22T06:22:53.910Z,64.46
2014-08-22T06:23:59.178Z,64.12
2014-08-22T06:25:03.868Z,63.37
2014-08-22T06:26:08.541Z,63.32
2014-08-22T06:27:13.529Z,63.48
2014-08-22T06:28:18.202Z,63.72
2014-08-22T06:29:23.189Z,64.01
2014-08-22T06:30:28.472Z,64.52
2014-08-22T06:31:33.442Z,64.12
2014-08-22T06:32:38.133Z,63.45
2014-08-22T06:33:42.805Z,63.19
2014-08-22T06:34:47.496Z,63.42
2014-08-22T06:35:52.467Z,63.21
2014-08-22T06:36:57.157Z,63.3
2014-08-22T06:38:01.878Z,63.45
2014-08-22T06:39:06.863Z,63.53
2014-08-22T06:40:11.538Z,64.51
2014-08-22T06:41:16.820Z,64.06
2014-08-22T06:42:21.494Z,63.83
2014-08-22T06:43:26.185Z,64.47
2014-08-22T06:44:30.859Z,64.81
2014-08-22T06:45:35.845Z,64.39
2014-08-22T06:46:40.519Z,63.77
2014-08-22T06:47:44.818Z,64.26
2014-08-22T06:48:49.491Z,63.68
2014-08-22T06:49:54.166Z,63.73
2014-08-22T06:50:58.854Z,64.14
2014-08-22T06:52:03.529Z,64.81
2014-08-22T06:53:08.218Z,64.36
2014-08-22T06:54:12.892Z,64.09
2014-08-22T06:55:17.566Z,64.94
2014-08-22T06:56:22.256Z,65.04
2014-08-22T06:57:26.930Z,64.5
2014-08-22T06:58:31.604Z,64.44
2014-08-22T06:59:36.592Z,64.32
2014-08-22T07:00:41.266Z,64.14
2014-08-22T07:01:45.955Z,63.11
2014-08-22T07:02:50.629Z,62.52
2014-08-22T07:03:55.303Z,63.35
2014-08-22T07:04:59.992Z,62.85
2014-08-22T07:06:04.979Z,62.84
2014-08-22T07:07:09.653Z,63.63
2014-08-22T07:08:14.358Z,64.36
2014-08-22T07:09:19.033Z,63.83
2014-08-22T07:10:23.722Z,62.96
2014-08-22T07:11:28.709Z,62.7
2014-08-22T07:12:33.398Z,62.48
2014-08-22T07:13:38.072Z,62.83
2014-08-22T07:14:42.761Z,62.59
2014-08-22T07:15:47.435Z,62.85
2014-08-22T07:16:52.422Z,61.6
2014-08-22T07:17:57.424Z,61.69
2014-08-22T07:19:02.098Z,61.62
2014-08-22T07:20:06.771Z,61.74
2014-08-22T07:21:11.461Z,61.73
2014-08-22T07:22:16.134Z,61.45
2014-08-22T07:23:20.809Z,61.65
2014-08-22T07:24:25.795Z,61.49
2014-08-22T07:25:30.469Z,61.68
2014-08-22T07:26:35.158Z,61.61
2014-08-22T07:27:39.833Z,60.9
2014-08-22T07:28:44.506Z,60.75
2014-08-22T07:29:49.196Z,61.03
2014-08-22T07:30:54.166Z,61.54
2014-08-22T07:31:59.153Z,61.1
2014-08-22T07:33:03.827Z,61.46
2014-08-22T07:34:08.813Z,60.61
2014-08-22T07:35:13.784Z,60.11
2014-08-22T07:36:18.473Z,60
2014-08-22T07:37:23.148Z,59.43
2014-08-22T07:38:27.822Z,59.43
2014-08-22T07:39:32.511Z,58.95
2014-08-22T07:40:37.185Z,58.2
2014-08-22T07:41:41.875Z,57.68
2014-08-22T07:42:46.548Z,57.51
2014-08-22T07:43:51.535Z,58.3
2014-08-22T07:44:56.208Z,58.46
2014-08-22T07:46:00.898Z,58.02
2014-08-22T07:47:05.885Z,57.85
2014-08-22T07:48:10.559Z,58.52
2014-08-22T07:49:15.544Z,58.13
2014-08-22T07:50:20.518Z,57.77
2014-08-22T07:51:25.207Z,58.5
2014-08-22T07:52:30.194Z,57.86
2014-08-22T07:53:35.165Z,57.54
2014-08-22T07:54:40.151Z,57.43
2014-08-22T07:55:44.824Z,57.62
2014-08-22T07:56:49.529Z,56.28
2014-08-22T07:57:54.218Z,56.1
2014-08-22T07:58:58.893Z,55.69
2014-08-22T08:00:03.583Z,55.58
2014-08-22T08:01:08.257Z,56.03
2014-08-22T08:02:13.243Z,55.46
2014-08-22T08:03:17.933Z,55.44
2014-08-22T08:04:22.606Z,55.28
2014-08-22T08:05:27.280Z,55.34
2014-08-22T08:06:31.969Z,54.96
2014-08-22T08:07:37.253Z,56.14
2014-08-22T08:08:41.927Z,55.48
2014-08-22T08:09:46.616Z,54.65
2014-08-22T08:10:51.290Z,55.2
2014-08-22T08:11:55.980Z,54.39
2014-08-22T08:13:00.654Z,53.79
2014-08-22T08:14:05.640Z,53.77
2014-08-22T08:15:10.314Z,54.66
2014-08-22T08:16:15.004Z,53.86
2014-08-22T08:17:19.677Z,53.67
2014-08-22T08:18:24.367Z,53.03
2014-08-22T08:19:29.041Z,52.98
2014-08-22T08:20:34.027Z,53.09
2014-08-22T08:21:38.717Z,54.51
2014-08-22T08:22:43.985Z,54.85
2014-08-22T08:23:48.674Z,53.34
2014-08-22T08:24:53.660Z,52.54
2014-08-22T08:25:58.631Z,52.51
2014-08-22T08:27:03.321Z,51.8
2014-08-22T08:28:07.995Z,51.94
2014-08-22T08:29:12.685Z,51.71
2014-08-22T08:30:17.359Z,52.16
2014-08-22T08:31:22.345Z,51.84
2014-08-22T08:32:27.034Z,51.84
2014-08-22T08:33:31.707Z,51.68
2014-08-22T08:34:36.382Z,51.24
2014-08-22T08:35:41.369Z,51.21
2014-08-22T08:36:46.355Z,51.12
2014-08-22T08:37:51.030Z,51.21
2014-08-22T08:38:55.718Z,50.66
2014-08-22T08:40:00.705Z,51.18
2014-08-22T08:41:05.379Z,51.88
2014-08-22T08:42:10.365Z,49.8
2014-08-22T08:43:15.337Z,49.59
2014-08-22T08:44:20.025Z,50.12
2014-08-22T08:45:24.716Z,50.18
2014-08-22T08:46:29.391Z,50.09
2014-08-22T08:47:34.080Z,49.37
2014-08-22T08:48:38.779Z,50.38
2014-08-22T08:49:43.506Z,50.75
2014-08-22T08:50:48.519Z,52.03
2014-08-22T08:51:53.246Z,50.45
2014-08-22T08:52:57.962Z,50.1
2014-08-22T08:54:02.666Z,50.07
2014-08-22T08:55:07.387Z,50.05
2014-08-22T08:56:11.402Z,49.54
2014-08-22T08:57:16.091Z,50.27
2014-08-22T08:58:20.793Z,49.35
2014-08-22T08:59:25.488Z,49.96
2014-08-22T09:00:30.479Z,50.49
2014-08-22T09:01:35.175Z,50.39
2014-08-22T09:02:40.150Z,49.15
2014-08-22T09:03:44.843Z,48.95
2014-08-22T09:04:49.519Z,48.51
2014-08-22T09:05:54.211Z,48.3
2014-08-22T09:06:58.885Z,50.05
2014-08-22T09:08:03.874Z,51.19
2014-08-22T09:09:08.565Z,52.33
2014-08-22T09:10:13.238Z,51.16
2014-08-22T09:11:17.929Z,50.01
2014-08-22T09:12:22.605Z,49.93
2014-08-22T09:13:27.278Z,50.53
2014-08-22T09:14:31.969Z,49.89
2014-08-22T09:15:36.659Z,50.02
2014-08-22T09:16:41.332Z,49.73
2014-08-22T09:17:46.023Z,50.41
2014-08-22T09:18:50.713Z,50.85
2014-08-22T09:19:55.387Z,51.04
2014-08-22T09:21:00.373Z,50.11
2014-08-22T09:22:05.047Z,50.21
2014-08-22T09:23:09.736Z,50.99
2014-08-22T09:24:14.411Z,50.68
2014-08-22T09:25:19.397Z,50.67
2014-08-22T09:26:24.087Z,49.92
2014-08-22T09:27:28.761Z,49.71
2014-08-22T09:28:33.466Z,51.1
2014-08-22T09:29:38.140Z,49.63
2014-08-22T09:30:43.126Z,50.32
2014-08-22T09:31:47.800Z,49.33
2014-08-22T09:32:52.786Z,47.17
2014-08-22T09:33:57.476Z,47.3
2014-08-22T09:35:02.150Z,47.57
2014-08-22T09:36:07.137Z,45.3
2014-08-22T09:37:12.122Z,45.48
2014-08-22T09:38:16.796Z,46.21
2014-08-22T09:39:21.502Z,46.38
2014-08-22T09:40:26.192Z,47.47
2014-08-22T09:41:30.880Z,47.35
2014-08-22T09:42:35.555Z,45.16
2014-08-22T09:43:40.245Z,45.89
2014-08-22T09:44:44.919Z,44.81
2014-08-22T09:45:49.607Z,44.95
2014-08-22T09:46:54.594Z,46.07
2014-08-22T09:47:59.284Z,44.11
2014-08-22T09:49:03.957Z,42.99
2014-08-22T09:50:08.647Z,42.99
2014-08-22T09:51:13.321Z,42.97
2014-08-22T09:52:18.010Z,42.18
2014-08-22T09:53:22.700Z,42.17
2014-08-22T09:54:27.390Z,40.47
2014-08-22T09:55:32.360Z,39.67
2014-08-22T09:56:37.050Z,40.16
2014-08-22T09:57:41.740Z,39.14
2014-08-22T09:58:46.413Z,39.85
2014-08-22T09:59:51.103Z,39.67
2014-08-22T10:00:55.792Z,38.67
2014-08-22T10:02:00.467Z,38.39
2014-08-22T10:03:05.157Z,39.04
2014-08-22T10:04:09.830Z,38.73
2014-08-22T10:05:14.816Z,38.65
2014-08-22T10:06:19.788Z,35.26
2014-08-22T10:07:24.478Z,35.24
2014-08-22T10:08:29.152Z,37.91
2014-08-22T10:09:33.842Z,36.14
2014-08-22T10:10:38.813Z,36.37
2014-08-22T10:11:43.502Z,38.13
2014-08-22T10:12:48.192Z,35.93
2014-08-22T10:13:52.866Z,36.6
2014-08-22T10:14:57.853Z,35.63
2014-08-22T10:16:02.526Z,36.52
2014-08-22T10:17:07.215Z,36.85
2014-08-22T10:18:12.498Z,36.82
2014-08-22T10:19:17.470Z,39.1
2014-08-22T10:20:22.159Z,39.21
2014-08-22T10:21:27.145Z,38.51
2014-08-22T10:22:31.835Z,38.73
2014-08-22T10:23:36.509Z,38.23
2014-08-22T10:24:41.198Z,38.24
2014-08-22T10:25:45.888Z,38.91
2014-08-22T10:26:50.578Z,38.46
2014-08-22T10:27:55.252Z,38.94
2014-08-22T10:29:00.238Z,38.15
2014-08-22T10:30:04.912Z,38.18
2014-08-22T10:31:09.898Z,38.18
2014-08-22T10:32:14.588Z,37.28
2014-08-22T10:33:19.574Z,38.08
2014-08-22T10:34:24.545Z,37.17
2014-08-22T10:35:29.234Z,36.46
2014-08-22T10:36:33.925Z,36.99
2014-08-22T10:37:38.598Z,38.73
2014-08-22T10:38:43.585Z,39.47
2014-08-22T10:39:48.274Z,37.26
2014-08-22T10:40:52.964Z,37.47
2014-08-22T10:41:57.653Z,38.75
2014-08-22T10:43:02.624Z,39.44
2014-08-22T10:44:07.313Z,38.79
2014-08-22T10:45:12.003Z,38.88
2014-08-22T10:46:16.677Z,38.71
2014-08-22T10:47:21.367Z,38.41
2014-08-22T10:48:26.056Z,38.69
2014-08-22T10:49:31.027Z,39.23
2014-08-22T10:50:35.715Z,38.65
2014-08-22T10:51:40.687Z,38.1
2014-08-22T10:52:45.377Z,39.17
2014-08-22T10:53:50.363Z,39.09
2014-08-22T10:54:55.349Z,37.18
2014-08-22T10:56:00.023Z,37.2
2014-08-22T10:57:04.713Z,36.74
2014-08-22T10:58:09.402Z,38.39
2014-08-22T10:59:14.092Z,36.07
2014-08-22T11:00:18.766Z,35.91
2014-08-22T11:01:23.752Z,36.74
2014-08-22T11:02:28.442Z,37.55
2014-08-22T11:03:33.414Z,38.13
2014-08-22T11:04:38.104Z,37.56
2014-08-22T11:05:42.793Z,37.13
2014-08-22T11:06:47.484Z,36.44
2014-08-22T11:07:52.172Z,36.59
2014-08-22T11:08:56.877Z,37.34
2014-08-22T11:10:01.864Z,37.48
2014-08-22T11:11:06.539Z,38.33
2014-08-22T11:12:11.228Z,39.28
2014-08-22T11:13:15.902Z,39.73
2014-08-22T11:14:20.888Z,39.34
2014-08-22T11:15:25.562Z,38.57
2014-08-22T11:16:30.252Z,38.95
2014-08-22T11:17:34.941Z,39.09
2014-08-22T11:18:39.615Z,39.18
2014-08-22T11:19:44.305Z,39.01
2014-08-22T11:20:48.994Z,39.62
2014-08-22T11:21:53.668Z,40.51
2014-08-22T11:22:58.655Z,39.09
2014-08-22T11:24:03.625Z,39.68
2014-08-22T11:25:08.315Z,39.49
2014-08-22T11:26:13.301Z,40.24
2014-08-22T11:27:17.976Z,40.67
2014-08-22T11:28:22.664Z,40.84
2014-08-22T11:29:27.354Z,40.41
2014-08-22T11:30:32.029Z,40.26
2014-08-22T11:31:36.717Z,41.78
2014-08-22T11:32:41.391Z,41.23
2014-08-22T11:33:46.082Z,40.41
2014-08-22T11:34:50.771Z,39.42
2014-08-22T11:35:55.461Z,38.97
2014-08-22T11:37:00.134Z,39.26
2014-08-22T11:38:05.120Z,39.15
2014-08-22T11:39:09.810Z,39.78
2014-08-22T11:40:14.499Z,39.92
2014-08-22T11:41:19.486Z,41.15
2014-08-22T11:42:24.160Z,40.63
2014-08-22T11:43:28.850Z,40.18
2014-08-22T11:44:33.538Z,40.21
2014-08-22T11:45:38.213Z,39.84
2014-08-22T11:46:42.903Z,39.88
2014-08-22T11:47:47.889Z,40.42
2014-08-22T11:48:52.563Z,40.27
2014-08-22T11:49:57.549Z,39.68
2014-08-22T11:51:02.239Z,40.36
2014-08-22T11:52:06.913Z,39.68
2014-08-22T11:53:11.602Z,39.8
2014-08-22T11:54:16.574Z,42.6
2014-08-22T11:55:21.559Z,41.28
2014-08-22T11:56:26.249Z,40.22
2014-08-22T11:57:30.923Z,40.32
2014-08-22T11:58:35.910Z,40.46
2014-08-22T11:59:40.598Z,40.08
2014-08-22T12:00:45.570Z,40.41
2014-08-22T12:01:50.259Z,40.3
2014-08-22T12:02:54.934Z,39.18
2014-08-22T12:03:59.623Z,39.14
2014-08-22T12:05:04.313Z,38.6
2014-08-22T12:06:09.002Z,38.64
2014-08-22T12:07:13.988Z,39.45
2014-08-22T12:08:18.976Z,38.98
2014-08-22T12:09:23.665Z,39.3
2014-08-22T12:10:28.355Z,39.83
2014-08-22T12:11:33.030Z,39.74
2014-08-22T12:12:37.718Z,39.25
2014-08-22T12:13:43.001Z,39.27
2014-08-22T12:14:47.691Z,39.76
2014-08-22T12:15:52.381Z,38.72
2014-08-22T12:16:57.070Z,39.06
2014-08-22T12:18:01.745Z,39.13
2014-08-22T12:19:06.730Z,39.16
2014-08-22T12:20:11.421Z,38.89
2014-08-22T12:21:16.109Z,38.94
2014-08-22T12:22:20.784Z,40.24
2014-08-22T12:23:25.474Z,40.48
2014-08-22T12:24:30.163Z,39.47
2014-08-22T12:25:34.853Z,38.73
2014-08-22T12:26:39.527Z,39.08
2014-08-22T12:27:44.232Z,39.77
2014-08-22T12:28:48.921Z,39.66
2014-08-22T12:29:53.595Z,39.04
2014-08-22T12:30:58.284Z,39.5
2014-08-22T12:32:02.958Z,40.47
2014-08-22T12:33:07.946Z,40.33
2014-08-22T12:34:12.635Z,39.54
2014-08-22T12:35:17.605Z,39.7
2014-08-22T12:36:22.295Z,39.85
2014-08-22T12:37:26.985Z,38.39
2014-08-22T12:38:31.673Z,37.62
2014-08-22T12:39:36.347Z,37.41
2014-08-22T12:40:41.334Z,37.01
2014-08-22T12:41:46.023Z,36.9
2014-08-22T12:42:50.698Z,37.91
2014-08-22T12:43:55.387Z,37.32
2014-08-22T12:45:00.077Z,37.01
2014-08-22T12:46:04.751Z,37.59
2014-08-22T12:47:09.737Z,36.95
2014-08-22T12:48:14.426Z,37.55
2014-08-22T12:49:19.414Z,37.14
2014-08-22T12:50:24.104Z,37.51
2014-08-22T12:51:28.778Z,38.66
2014-08-22T12:52:33.466Z,40.29
2014-08-22T12:53:38.157Z,40.7
2014-08-22T12:54:42.845Z,40.63
2014-08-22T12:55:47.535Z,41.29
2014-08-22T12:56:52.208Z,41.06
2014-08-22T12:57:57.227Z,41.57
2014-08-22T12:59:01.900Z,42.78
2014-08-22T13:00:06.590Z,43.32
2014-08-22T13:01:11.280Z,42.98
2014-08-22T13:02:16.266Z,42.53
2014-08-22T13:03:20.940Z,42.24
2014-08-22T13:04:25.927Z,42.08
2014-08-22T13:05:30.616Z,42
2014-08-22T13:06:35.587Z,41.57
2014-08-22T13:07:40.573Z,41.67
2014-08-22T13:08:45.263Z,41.38
2014-08-22T13:09:50.233Z,41.58
2014-08-22T13:10:54.923Z,42.25
2014-08-22T13:11:59.613Z,41.66
2014-08-22T13:13:04.287Z,41.8
2014-08-22T13:14:08.977Z,41.67
2014-08-22T13:15:13.651Z,41.21
2014-08-22T13:16:18.637Z,41
2014-08-22T13:17:23.311Z,41.19
2014-08-22T13:18:28.000Z,41.15
2014-08-22T13:19:32.987Z,40.97
2014-08-22T13:20:37.676Z,41.24
2014-08-22T13:21:42.350Z,41.67
2014-08-22T13:22:47.040Z,41.73
2014-08-22T13:23:52.026Z,41.8
2014-08-22T13:24:56.716Z,42.06
2014-08-22T13:26:01.702Z,42.73
2014-08-22T13:27:06.376Z,42.05
2014-08-22T13:28:11.066Z,42.03
2014-08-22T13:29:16.053Z,40.75
2014-08-22T13:30:20.741Z,40.22
2014-08-22T13:31:25.416Z,39.43
2014-08-22T13:32:30.106Z,40.16
2014-08-22T13:33:34.795Z,39.57
2014-08-22T13:34:39.485Z,39.23
2014-08-22T13:35:44.174Z,39.2
2014-08-22T13:36:48.864Z,39.51
2014-08-22T13:37:53.537Z,40.31
2014-08-22T13:38:58.226Z,40.02
2014-08-22T13:40:03.213Z,39.39
2014-08-22T13:41:07.903Z,40.97
2014-08-22T13:42:12.889Z,39.23
2014-08-22T13:43:17.579Z,38.91
2014-08-22T13:44:22.254Z,38.58
2014-08-22T13:45:26.959Z,38.48
2014-08-22T13:46:31.647Z,39.18
2014-08-22T13:47:36.321Z,38.09
2014-08-22T13:48:41.308Z,37.8
2014-08-22T13:49:45.983Z,36.69
2014-08-22T13:50:50.673Z,37.97
2014-08-22T13:51:55.362Z,37.77
2014-08-22T13:53:00.036Z,37.4
2014-08-22T13:54:04.726Z,38.02
2014-08-22T13:55:09.416Z,36.57
2014-08-22T13:56:14.089Z,36.1
2014-08-22T13:57:18.780Z,37.08